Time;durP1;ratioP1;P1;durP2;ratioP2;P2;SDS_P1;SDS_P2;PMS_P1;PMS_P2;Temp;Humidity;BMP_temperature;BMP_pressure;BME280_temperature;BME280_humidity;BME280_pressure;Samples;Min_cycle;Max_cycle;Signal;HPM_P1;HPM_P2
2023/06/14 00:01:27;;;;;;;4.10;2.45;;;;;;;22.22;78.83;99319.94;5111016;28;20032;-81
2023/06/14 00:03:52;;;;;;;1.85;1.30;;;;;;;22.14;79.08;99312.44;5074074;28;20071;-81
2023/06/14 00:06:18;;;;;;;2.53;1.40;;;;;;;22.24;79.64;99338.66;5092369;28;20031;-81
2023/06/14 00:08:43;;;;;;;3.40;2.17;;;;;;;22.03;79.32;99295.31;5092164;28;20541;-81
2023/06/14 00:11:09;;;;;;;3.88;2.58;;;;;;;22.22;80.14;99343.28;5092202;28;20500;-82
2023/06/14 00:13:34;;;;;;;4.60;2.17;;;;;;;21.91;80.83;99292.53;5093397;28;20032;-82
2023/06/14 00:16:00;;;;;;;5.65;2.40;;;;;;;21.90;81.33;99298.00;5091906;28;20123;-81
2023/06/14 00:18:29;;;;;;;2.50;1.77;;;;;;;21.99;81.72;99311.63;5091933;28;20028;-80
2023/06/14 00:20:55;;;;;;;3.42;2.20;;;;;;;21.99;82.35;99322.38;5091804;28;20023;-82
2023/06/14 00:23:20;;;;;;;5.50;2.50;;;;;;;21.99;82.88;99326.91;5092681;28;20173;-81
2023/06/14 00:25:46;;;;;;;4.85;2.30;;;;;;;22.01;83.61;99349.13;5092248;28;20028;-81
2023/06/14 00:28:11;;;;;;;12.60;3.00;;;;;;;21.59;84.73;99274.06;5104164;28;20039;-81
2023/06/14 00:30:36;;;;;;;4.20;2.28;;;;;;;21.82;85.10;99302.06;5112161;28;20024;-81
2023/06/14 00:33:02;;;;;;;3.58;2.78;;;;;;;22.00;85.13;99334.00;5112026;28;20055;-81
2023/06/14 00:35:27;;;;;;;4.53;3.40;;;;;;;21.79;84.81;99282.63;5110783;28;20093;-81
2023/06/14 00:37:54;;;;;;;4.78;3.25;;;;;;;22.09;84.19;99311.00;5111464;28;20475;-81
2023/06/14 00:40:21;;;;;;;3.92;3.17;;;;;;;22.17;84.18;99338.22;5112073;28;20471;-81
2023/06/14 00:42:46;;;;;;;5.35;2.75;;;;;;;22.18;84.20;99326.50;5092122;28;20036;-81
2023/06/14 00:45:12;;;;;;;4.20;2.67;;;;;;;22.10;85.00;99328.84;5092749;28;20031;-80
2023/06/14 00:47:40;;;;;;;3.60;2.45;;;;;;;22.17;84.46;99311.34;5091737;28;20032;-81
2023/06/14 00:50:08;;;;;;;5.20;2.92;;;;;;;22.08;84.58;99295.88;5091402;28;20078;-81
2023/06/14 00:52:34;;;;;;;3.42;2.58;;;;;;;22.08;84.96;99293.19;5091411;28;20547;-81
2023/06/14 00:55:00;;;;;;;2.85;2.25;;;;;;;21.93;85.04;99277.16;5092359;28;20036;-81
2023/06/14 00:57:26;;;;;;;9.43;3.55;;;;;;;22.02;85.30;99299.00;5090673;28;20028;-82
2023/06/14 00:59:52;;;;;;;3.50;2.45;;;;;;;21.97;84.34;99269.78;5091406;28;20036;-81
2023/06/14 01:02:18;;;;;;;2.63;2.10;;;;;;;22.12;84.90;99316.16;5091285;28;20020;-81
2023/06/14 01:04:47;;;;;;;3.17;2.40;;;;;;;22.06;84.66;99316.59;5109567;28;20038;-81
2023/06/14 01:07:37;;;;;;;4.55;2.38;;;;;;;22.10;84.53;99328.84;5091388;28;20039;-81
2023/06/14 01:10:21;;;;;;;6.80;2.88;;;;;;;22.08;84.45;99320.06;5111237;28;20028;-81
2023/06/14 01:13:08;;;;;;;8.60;2.15;;;;;;;22.04;83.50;99295.22;5091971;28;20035;-83
2023/06/14 01:15:35;;;;;;;4.68;2.20;;;;;;;21.90;83.80;99298.00;5090873;28;20035;-81
2023/06/14 01:18:04;;;;;;;2.25;1.52;;;;;;;22.12;82.76;99310.81;5091995;28;20040;-82
2023/06/14 01:20:32;;;;;;;3.58;2.25;;;;;;;21.73;82.76;99250.81;5095694;28;20031;-81
2023/06/14 01:22:58;;;;;;;7.15;3.38;;;;;;;21.80;83.24;99292.41;5092512;28;20416;-80
2023/06/14 01:25:25;;;;;;;6.53;3.22;;;;;;;21.88;83.68;99311.53;5092364;28;20027;-81
2023/06/14 01:27:53;;;;;;;4.05;2.00;;;;;;;21.84;83.70;99307.31;5093741;28;20501;-82
2023/06/14 01:30:21;;;;;;;2.58;1.80;;;;;;;21.70;83.70;99276.03;5111299;28;20059;-81
2023/06/14 01:32:47;;;;;;;4.43;2.35;;;;;;;21.81;83.45;99291.41;5111050;28;20023;-82
2023/06/14 01:35:13;;;;;;;2.50;1.85;;;;;;;21.71;83.31;99274.25;5110865;28;20047;-82
2023/06/14 01:37:41;;;;;;;3.40;2.13;;;;;;;21.75;83.09;99292.72;5111038;28;20069;-82
2023/06/14 01:40:08;;;;;;;4.50;2.75;;;;;;;21.78;82.70;99295.19;5095491;28;20537;-82
2023/06/14 01:42:36;;;;;;;3.03;2.22;;;;;;;21.84;81.18;99285.00;5090251;28;20023;-82
2023/06/14 01:45:03;;;;;;;3.90;2.25;;;;;;;21.70;81.98;99302.88;5090510;28;20036;-82
2023/06/14 01:47:30;;;;;;;4.93;2.72;;;;;;;21.40;81.82;99255.66;5090442;28;20471;-81
2023/06/14 01:49:55;;;;;;;2.05;1.73;;;;;;;21.41;81.41;99260.06;5090818;28;20036;-82
2023/06/14 01:52:22;;;;;;;4.93;2.78;;;;;;;21.61;81.05;99300.81;5090298;28;20417;-81
2023/06/14 01:54:47;;;;;;;2.60;1.55;;;;;;;21.50;81.25;99285.44;5090143;28;20027;-82
2023/06/14 01:57:13;;;;;;;6.45;2.15;;;;;;;21.58;81.18;99301.03;5090176;28;20028;-82
2023/06/14 01:59:39;;;;;;;3.47;2.35;;;;;;;21.49;81.21;99281.06;5090717;28;20019;-82
2023/06/14 02:02:04;;;;;;;2.42;2.15;;;;;;;21.53;81.04;99287.91;5090328;28;20112;-81
2023/06/14 02:04:30;;;;;;;4.00;1.98;;;;;;;21.55;80.92;99301.22;5090463;28;20035;-83
2023/06/14 02:06:55;;;;;;;3.80;2.35;;;;;;;21.50;81.47;99290.81;5089701;28;20115;-82
2023/06/14 02:09:21;;;;;;;3.90;1.92;;;;;;;21.54;81.44;99304.91;5089714;28;20039;-81
2023/06/14 02:11:46;;;;;;;4.55;2.05;;;;;;;21.56;81.35;99306.50;5090497;28;20044;-82
2023/06/14 02:14:12;;;;;;;4.18;2.20;;;;;;;21.38;81.50;99284.41;5089748;28;20056;-81
2023/06/14 02:16:38;;;;;;;3.55;2.85;;;;;;;21.65;80.73;99296.97;5089945;28;20043;-82
2023/06/14 02:19:05;;;;;;;3.25;2.33;;;;;;;21.34;80.74;99264.09;5084736;28;20050;-82
2023/06/14 11:34:07;;;;;;;7.10;3.80;;;;;;;28.92;55.05;99408.28;4916305;29;20142;-82
2023/06/14 11:40:09;;;;;;;5.72;3.83;;;;;;;30.33;46.89;99370.81;4915667;29;20108;-82
2023/06/14 11:42:35;;;;;;;7.70;4.75;;;;;;;30.13;45.27;99376.41;4916525;29;20050;-82
2023/06/14 11:45:02;;;;;;;5.60;3.20;;;;;;;29.91;46.44;99398.66;4907273;29;20058;-81
2023/06/14 11:47:46;;;;;;;7.85;5.07;;;;;;;29.80;46.80;99389.72;4905487;29;20119;-81
2023/06/14 11:50:11;;;;;;;7.40;5.45;;;;;;;30.00;47.66;99386.84;4894786;29;20104;-81
2023/06/14 11:52:37;;;;;;;9.82;4.43;;;;;;;30.07;47.07;99365.31;4896634;29;20044;-81
2023/06/14 11:55:06;;;;;;;6.55;3.83;;;;;;;29.92;48.13;99389.47;4903600;29;20439;-80
2023/06/14 11:57:36;;;;;;;5.63;3.95;;;;;;;29.75;47.16;99334.94;4907024;29;20056;-79
2023/06/14 12:00:15;;;;;;;5.75;3.53;;;;;;;29.86;45.89;99357.47;4906012;29;20088;-83
2023/06/14 12:02:41;;;;;;;6.75;3.80;;;;;;;30.23;43.82;99364.59;4901806;29;20107;-83
2023/06/14 12:05:09;;;;;;;8.43;4.43;;;;;;;30.11;42.03;99375.72;4906623;29;20032;-82
2023/06/14 12:07:39;;;;;;;13.40;5.10;;;;;;;29.70;43.25;99378.03;4902872;29;20028;-81
2023/06/14 12:10:08;;;;;;;4.40;2.97;;;;;;;29.52;43.93;99369.00;4901557;29;20501;-82
2023/06/14 12:12:38;;;;;;;5.25;3.92;;;;;;;29.65;45.11;99369.47;4899874;29;20087;-82
2023/06/14 12:15:06;;;;;;;5.43;3.50;;;;;;;29.86;44.78;99371.94;4902724;29;20499;-81
2023/06/14 12:17:36;;;;;;;5.30;3.65;;;;;;;29.92;45.43;99349.56;4903765;29;20043;-81
2023/06/14 12:20:16;;;;;;;6.38;4.35;;;;;;;30.21;43.59;99381.06;4907666;29;20028;-82
2023/06/14 12:22:52;;;;;;;6.38;3.85;;;;;;;30.26;44.87;99347.97;4908887;29;20040;-80
2023/06/14 12:25:31;;;;;;;5.25;3.67;;;;;;;29.89;45.10;99341.72;4901886;29;20040;-81
2023/06/14 12:27:57;;;;;;;5.78;3.80;;;;;;;29.99;44.47;99356.06;4901983;29;20032;-81
2023/06/14 12:30:23;;;;;;;6.15;4.15;;;;;;;30.23;43.27;99364.59;4903589;29;20043;-82
2023/06/14 12:32:48;;;;;;;6.80;3.70;;;;;;;30.08;43.39;99334.41;4903100;29;20037;-84
2023/06/14 12:35:15;;;;;;;7.43;3.85;;;;;;;30.27;45.58;99339.66;4924898;29;20047;-81
2023/06/14 12:37:41;;;;;;;4.78;3.85;;;;;;;30.52;45.23;99343.44;4937907;29;20402;-81
2023/06/14 12:40:07;;;;;;;6.18;4.13;;;;;;;30.15;46.57;99320.03;4951124;29;20148;-82
2023/06/14 12:42:33;;;;;;;8.70;4.38;;;;;;;30.43;45.62;99310.88;4927820;29;20134;-81
2023/06/14 12:44:59;;;;;;;5.90;3.70;;;;;;;30.76;45.02;99322.81;4941759;29;20168;-82
2023/06/14 12:47:25;;;;;;;6.50;3.88;;;;;;;30.87;45.56;99332.56;4940681;29;20059;-81
2023/06/14 12:49:51;;;;;;;6.68;4.60;;;;;;;31.20;44.54;99327.28;4946048;29;20124;-85
2023/06/14 12:52:16;;;;;;;8.20;4.50;;;;;;;31.70;41.89;99311.91;4947978;28;20032;-84
2023/06/14 12:54:42;;;;;;;5.72;3.95;;;;;;;31.20;43.25;99308.22;4941493;29;20162;-83
2023/06/14 12:57:07;;;;;;;5.38;3.50;;;;;;;30.74;42.55;99286.75;4939597;29;20478;-83
2023/06/14 12:59:33;;;;;;;10.70;4.53;;;;;;;30.43;43.15;99259.19;4945176;29;20485;-86
2023/06/14 13:02:22;;;;;;;7.70;4.35;;;;;;;30.94;43.75;99313.69;4951090;29;20039;-84
2023/06/14 13:04:47;;;;;;;6.25;3.35;;;;;;;30.58;45.41;99292.09;4952656;29;20489;-84
2023/06/14 13:07:14;;;;;;;5.88;3.83;;;;;;;30.12;44.26;99281.41;4935871;29;20130;-84
2023/06/14 13:09:41;;;;;;;7.43;3.90;;;;;;;30.35;44.20;99298.03;4943766;29;20024;-84
2023/06/14 13:12:07;;;;;;;5.53;3.58;;;;;;;30.33;44.15;99290.03;4942079;29;20043;-84
2023/06/14 13:14:32;;;;;;;6.97;4.38;;;;;;;30.22;45.65;99293.03;4943388;29;20380;-84
2023/06/14 13:16:58;;;;;;;5.40;3.60;;;;;;;29.99;45.70;99298.97;4951746;29;20034;-83
2023/06/14 13:19:23;;;;;;;4.85;3.20;;;;;;;29.80;44.22;99310.06;4939487;29;20507;-83
2023/06/14 13:21:49;;;;;;;4.93;3.03;;;;;;;29.64;45.29;99292.56;4943774;29;20035;-83
2023/06/14 13:24:15;;;;;;;5.43;2.95;;;;;;;29.42;43.55;99282.97;4938527;29;20035;-83
2023/06/14 13:26:40;;;;;;;4.20;2.65;;;;;;;29.53;43.92;99300.06;4938633;29;20042;-84
2023/06/14 13:29:06;;;;;;;3.58;2.50;;;;;;;29.04;43.56;99267.75;4940406;29;20102;-87
2023/06/14 13:31:31;;;;;;;4.90;2.97;;;;;;;28.78;44.86;99273.03;4922740;29;20539;-86
2023/06/14 13:33:57;;;;;;;3.17;1.98;;;;;;;29.09;45.78;99252.75;4946875;29;20074;-85
2023/06/14 13:36:24;;;;;;;3.88;2.38;;;;;;;29.15;45.98;99264.84;4938077;29;20591;-84
2023/06/14 13:38:51;;;;;;;6.78;2.38;;;;;;;29.47;45.05;99274.38;4951549;29;20031;-85
2023/06/14 13:41:17;;;;;;;4.80;2.55;;;;;;;29.42;43.73;99279.41;4943062;29;20054;-84
2023/06/14 13:43:42;;;;;;;5.00;2.22;;;;;;;29.63;44.99;99271.81;4934650;29;20039;-87
2023/06/14 13:46:08;;;;;;;3.05;1.70;;;;;;;29.53;44.09;99243.00;4916324;29;20520;-86
2023/06/14 13:48:33;;;;;;;1.75;1.38;;;;;;;29.56;43.75;99256.28;4929404;29;20126;-86
2023/06/14 13:51:00;;;;;;;2.40;1.65;;;;;;;29.80;45.58;99266.56;4937506;29;20563;-85
2023/06/14 13:53:26;;;;;;;5.05;1.77;;;;;;;30.03;44.37;99268.75;4936938;29;20114;-84
2023/06/14 13:55:52;;;;;;;1.92;1.73;;;;;;;29.24;43.95;99265.81;4937920;29;20499;-83
2023/06/14 13:58:18;;;;;;;4.18;1.52;;;;;;;29.12;44.65;99273.31;4936748;29;20027;-84
2023/06/14 14:00:44;;;;;;;2.05;1.25;;;;;;;28.65;45.56;99244.41;4915491;29;20093;-85
2023/06/14 14:03:09;;;;;;;4.25;2.78;;;;;;;29.10;45.05;99286.16;4935213;28;20092;-84
2023/06/14 14:05:35;;;;;;;4.55;1.95;;;;;;;29.44;45.26;99274.66;4938220;29;20118;-85
2023/06/14 14:08:01;;;;;;;3.42;2.50;;;;;;;29.34;43.75;99266.59;4909395;29;20513;-84
2023/06/14 14:10:27;;;;;;;2.92;1.77;;;;;;;29.43;44.61;99271.13;4932472;29;20063;-83
2023/06/14 14:12:54;;;;;;;5.40;2.33;;;;;;;29.33;44.77;99283.91;4934439;29;20039;-83
2023/06/14 14:15:20;;;;;;;1.88;1.33;;;;;;;29.20;44.53;99250.84;4933601;29;20773;-84
2023/06/14 14:17:47;;;;;;;3.85;2.33;;;;;;;29.45;44.47;99273.69;4934867;29;20035;-84
2023/06/14 14:20:15;;;;;;;2.25;1.13;;;;;;;29.54;43.57;99236.59;4931060;29;20583;-84
2023/06/14 14:22:44;;;;;;;3.90;2.10;;;;;;;28.99;43.62;99265.50;4935803;29;20149;-84
2023/06/14 14:25:10;;;;;;;2.03;1.52;;;;;;;29.07;44.12;99278.31;4935686;29;20046;-84
2023/06/14 14:27:36;;;;;;;3.70;1.80;;;;;;;28.86;44.90;99279.44;4935012;29;20035;-83
2023/06/14 14:30:05;;;;;;;2.97;2.05;;;;;;;28.55;45.42;99255.28;4940215;29;20058;-84
2023/06/14 14:32:31;;;;;;;1.85;1.30;;;;;;;28.64;47.36;99231.00;4937460;29;20034;-83
2023/06/14 14:34:56;;;;;;;2.78;1.77;;;;;;;28.51;46.54;99253.84;4935879;29;20493;-83
2023/06/14 14:37:21;;;;;;;2.83;1.52;;;;;;;28.30;46.56;99256.81;4944550;29;20038;-83
2023/06/14 14:39:47;;;;;;;1.90;1.40;;;;;;;28.45;47.49;99273.44;4938150;29;20048;-84
2023/06/14 14:42:13;;;;;;;3.15;1.88;;;;;;;28.39;47.30;99250.50;4943069;29;20062;-83
2023/06/14 14:44:39;;;;;;;4.32;2.05;;;;;;;28.72;46.37;99266.38;4931964;29;20054;-83
2023/06/14 14:47:05;;;;;;;2.92;1.83;;;;;;;28.86;45.64;99248.75;4934379;29;20055;-84
2023/06/14 14:49:31;;;;;;;4.15;1.45;;;;;;;29.37;46.18;99247.28;4935512;29;20161;-83
2023/06/14 14:51:57;;;;;;;2.28;1.50;;;;;;;29.52;46.44;99239.47;4935851;29;20095;-84
2023/06/14 14:54:23;;;;;;;4.20;1.95;;;;;;;29.50;46.06;99219.72;4938796;29;20138;-83
2023/06/14 14:56:49;;;;;;;3.72;1.92;;;;;;;29.53;46.38;99254.72;4936398;29;20192;-82
2023/06/14 14:59:14;;;;;;;8.15;2.30;;;;;;;29.04;46.99;99240.63;4937098;29;20089;-84
2023/06/14 15:01:40;;;;;;;2.47;1.70;;;;;;;29.14;47.56;99224.28;4941434;29;20043;-83
2023/06/14 15:04:05;;;;;;;5.88;2.53;;;;;;;28.91;47.70;99220.13;4936856;29;20028;-84
2023/06/14 15:06:31;;;;;;;2.80;1.65;;;;;;;28.96;48.73;99197.09;4937644;29;20413;-84
2023/06/14 15:08:57;;;;;;;3.92;2.30;;;;;;;29.05;48.09;99237.75;4938706;29;20028;-83
2023/06/14 15:11:22;;;;;;;2.95;1.90;;;;;;;28.93;48.30;99214.53;4938098;29;20085;-84
2023/06/14 15:13:48;;;;;;;1.98;1.60;;;;;;;28.91;47.03;99211.97;4940646;29;20035;-84
2023/06/14 15:16:14;;;;;;;3.50;1.90;;;;;;;29.07;47.02;99224.91;4939139;29;20031;-85
2023/06/14 15:18:40;;;;;;;3.10;1.65;;;;;;;28.99;46.38;99218.50;4943867;29;20051;-85
2023/06/14 15:21:05;;;;;;;2.63;1.60;;;;;;;29.13;47.14;99217.97;4939226;29;20031;-87
2023/06/14 15:23:31;;;;;;;2.67;1.55;;;;;;;29.23;46.93;99216.09;4941715;29;20164;-85
2023/06/14 15:25:57;;;;;;;3.90;2.28;;;;;;;29.33;45.86;99220.59;4947747;29;20066;-84
2023/06/14 15:28:24;;;;;;;3.45;1.85;;;;;;;29.17;46.79;99205.81;4944934;29;20035;-84
2023/06/14 15:30:49;;;;;;;3.13;2.00;;;;;;;29.65;47.43;99236.31;4949867;29;20035;-83
2023/06/14 15:33:15;;;;;;;2.25;1.25;;;;;;;29.44;46.36;99231.22;4935288;29;20512;-85
2023/06/14 15:35:40;;;;;;;3.28;1.95;;;;;;;29.11;45.58;99244.44;4934620;28;20052;-85
2023/06/14 15:38:06;;;;;;;3.97;1.85;;;;;;;29.08;45.75;99256.44;4946234;29;20046;-83
2023/06/14 15:40:31;;;;;;;2.72;1.65;;;;;;;29.23;45.81;99242.41;4940386;29;20030;-83
2023/06/14 15:42:57;;;;;;;2.88;1.70;;;;;;;29.02;45.39;99226.34;4943510;29;20027;-84
2023/06/14 15:45:22;;;;;;;3.72;1.48;;;;;;;28.92;46.51;99238.13;4934688;29;20055;-84
2023/06/14 15:47:48;;;;;;;2.33;1.30;;;;;;;28.91;46.72;99254.56;4937476;28;20052;-83
2023/06/14 15:50:13;;;;;;;2.20;1.55;;;;;;;28.67;46.96;99215.28;4933252;29;20031;-83
2023/06/14 15:52:39;;;;;;;3.13;1.98;;;;;;;28.68;46.92;99230.53;4933367;29;20490;-83
2023/06/14 15:55:05;;;;;;;2.33;1.42;;;;;;;28.60;47.23;99246.72;4935261;29;20407;-84
2023/06/14 15:57:31;;;;;;;1.75;0.93;;;;;;;28.45;48.19;99248.19;4951132;29;20045;-82
2023/06/14 15:59:56;;;;;;;1.98;1.30;;;;;;;28.26;49.09;99260.81;4951637;29;20028;-82
2023/06/14 16:02:22;;;;;;;2.70;1.70;;;;;;;28.26;49.12;99238.25;4952116;29;20421;-83
2023/06/14 16:04:47;;;;;;;2.35;1.58;;;;;;;28.39;49.07;99260.47;4951406;29;20206;-82
2023/06/14 16:07:14;;;;;;;2.53;1.75;;;;;;;28.31;49.61;99274.75;4951493;29;20090;-83
2023/06/14 16:09:39;;;;;;;3.08;1.80;;;;;;;28.06;50.23;99246.44;4950946;29;21397;-82
2023/06/14 16:12:06;;;;;;;2.25;1.60;;;;;;;28.06;50.91;99264.56;4952988;29;20029;-82
2023/06/14 16:14:31;;;;;;;2.33;1.48;;;;;;;27.96;50.64;99260.03;4952321;29;20094;-83
2023/06/14 16:16:57;;;;;;;1.35;0.90;;;;;;;27.93;51.40;99273.84;4948120;29;20192;-83
2023/06/14 16:19:23;;;;;;;3.17;1.42;;;;;;;27.98;51.60;99270.72;4953289;29;20109;-83
2023/06/14 16:21:49;;;;;;;2.83;1.42;;;;;;;27.82;51.28;99264.00;4947861;29;20047;-82
2023/06/14 16:24:15;;;;;;;2.30;1.30;;;;;;;27.80;51.74;99290.38;4949324;29;20058;-82
2023/06/14 16:26:40;;;;;;;2.80;1.85;;;;;;;27.84;52.18;99272.00;4950421;28;20040;-81
2023/06/14 16:29:06;;;;;;;1.60;1.20;;;;;;;27.85;53.27;99277.25;4952301;29;20101;-82
2023/06/14 16:31:31;;;;;;;2.47;1.83;;;;;;;27.98;52.65;99287.81;4939412;29;20043;-81
2023/06/14 16:33:57;;;;;;;2.75;1.77;;;;;;;28.19;52.83;99295.78;4939098;29;20482;-81
2023/06/14 16:36:25;;;;;;;1.98;1.45;;;;;;;28.15;52.85;99275.38;4933924;29;20063;-82
2023/06/14 16:38:51;;;;;;;2.85;2.13;;;;;;;28.14;53.52;99272.81;4927758;29;20040;-82
2023/06/14 16:41:17;;;;;;;1.80;1.38;;;;;;;28.23;52.99;99288.22;4945608;29;20039;-84
2023/06/14 16:43:42;;;;;;;2.83;1.50;;;;;;;28.42;52.60;99314.41;4945265;29;20040;-84
2023/06/14 16:46:08;;;;;;;2.40;1.42;;;;;;;28.34;53.36;99309.72;4944395;29;20428;-82
2023/06/14 16:48:34;;;;;;;3.28;1.25;;;;;;;28.25;53.75;99293.50;4920846;29;20063;-81
2023/06/14 16:50:59;;;;;;;1.80;1.30;;;;;;;28.12;53.74;99281.09;4948335;29;20032;-82
2023/06/14 16:53:27;;;;;;;3.47;2.25;;;;;;;28.17;53.81;99316.75;4948690;29;20134;-83
2023/06/14 16:55:53;;;;;;;2.70;1.65;;;;;;;28.09;53.79;99303.06;4933606;29;20043;-81
2023/06/14 16:58:18;;;;;;;2.15;1.63;;;;;;;27.84;54.19;99301.78;4937391;29;20040;-82
2023/06/14 17:00:44;;;;;;;2.45;1.58;;;;;;;27.84;54.52;99312.63;4945234;29;20118;-82
2023/06/14 17:03:09;;;;;;;3.20;1.25;;;;;;;27.72;54.96;99300.22;4928387;29;20477;-81
2023/06/14 17:05:35;;;;;;;5.82;1.80;;;;;;;27.58;54.90;99285.25;4933271;29;20503;-81
2023/06/14 17:08:01;;;;;;;2.53;1.50;;;;;;;27.60;55.63;99302.22;4949913;29;20093;-81
2023/06/14 17:10:26;;;;;;;2.75;1.33;;;;;;;27.76;55.28;99326.03;4945805;29;20122;-82
2023/06/14 17:12:53;;;;;;;2.78;1.52;;;;;;;27.44;55.44;99286.53;4943453;29;20528;-82
2023/06/14 17:15:18;;;;;;;2.78;1.70;;;;;;;27.54;55.24;99319.03;4945017;28;20062;-82
2023/06/14 17:17:44;;;;;;;3.40;1.60;;;;;;;27.30;55.82;99312.97;4949945;29;20485;-82
2023/06/14 17:20:10;;;;;;;2.22;1.20;;;;;;;27.22;57.01;99306.53;4942962;29;20035;-81
2023/06/14 17:22:35;;;;;;;4.53;1.45;;;;;;;27.01;57.66;99295.81;4937458;29;20035;-81
2023/06/14 17:25:01;;;;;;;1.92;1.42;;;;;;;26.92;57.60;99301.03;4950241;29;20826;-81
2023/06/14 17:27:26;;;;;;;3.45;1.85;;;;;;;26.74;57.94;99281.03;4950552;29;20057;-81
2023/06/14 17:29:52;;;;;;;3.55;2.17;;;;;;;26.69;57.82;99302.25;4945701;29;20063;-83
2023/06/14 17:32:18;;;;;;;6.72;1.88;;;;;;;26.74;57.71;99318.91;4943747;29;20027;-82
2023/06/14 17:34:43;;;;;;;1.90;1.58;;;;;;;26.87;57.97;99332.22;4945206;29;20047;-82
2023/06/14 17:37:09;;;;;;;3.35;1.92;;;;;;;26.70;58.08;99306.69;4945554;29;20406;-83
2023/06/14 17:39:36;;;;;;;2.80;1.63;;;;;;;26.72;58.17;99331.72;4948986;29;20127;-79
2023/06/14 17:42:02;;;;;;;3.40;2.15;;;;;;;26.55;58.72;99303.44;4950670;29;20110;-83
2023/06/14 17:44:27;;;;;;;4.07;2.13;;;;;;;26.54;59.54;99323.34;4951968;29;20042;-81
2023/06/14 17:46:53;;;;;;;3.00;1.63;;;;;;;26.34;60.08;99317.84;4947836;29;20412;-83
2023/06/14 17:49:23;;;;;;;3.25;1.58;;;;;;;26.27;60.45;99305.84;4948111;29;20520;-84
2023/06/14 17:51:49;;;;;;;3.58;1.52;;;;;;;26.40;60.41;99341.66;4950757;29;20031;-82
2023/06/14 17:54:15;;;;;;;2.58;1.70;;;;;;;26.07;61.06;99302.16;4943013;29;20054;-84
2023/06/14 17:56:40;;;;;;;4.00;2.00;;;;;;;26.33;60.96;99339.59;4945412;29;20082;-82
2023/06/14 17:59:07;;;;;;;3.55;1.55;;;;;;;26.21;60.94;99326.16;4941725;29;20031;-84
2023/06/14 18:01:32;;;;;;;3.15;1.75;;;;;;;26.18;61.29;99337.25;4940455;29;20032;-84
2023/06/14 18:03:58;;;;;;;3.33;1.77;;;;;;;25.99;61.34;99305.50;4936603;29;20042;-84
2023/06/14 18:06:23;;;;;;;5.75;3.38;;;;;;;26.23;61.20;99344.97;4939805;29;20032;-83
2023/06/14 18:08:49;;;;;;;4.25;2.75;;;;;;;26.07;61.90;99323.78;4941010;29;20028;-83
2023/06/14 18:11:15;;;;;;;2.60;1.48;;;;;;;26.15;62.11;99325.81;4938845;29;20031;-85
2023/06/14 18:13:40;;;;;;;2.80;1.67;;;;;;;26.16;62.90;99343.75;4936655;29;20068;-83
2023/06/14 18:16:06;;;;;;;3.53;2.13;;;;;;;26.04;63.15;99326.75;4943037;29;20032;-84
2023/06/14 18:18:31;;;;;;;2.10;1.70;;;;;;;26.00;63.94;99341.53;4940321;29;20552;-83
2023/06/14 18:20:59;;;;;;;1.67;1.58;;;;;;;25.89;64.98;99340.53;4937079;29;20028;-82
2023/06/14 18:23:24;;;;;;;3.13;1.80;;;;;;;26.12;64.25;99364.78;4921611;29;20074;-79
2023/06/14 18:25:50;;;;;;;2.92;1.70;;;;;;;25.67;64.56;99330.69;4938291;29;20119;-82
2023/06/14 18:28:16;;;;;;;1.95;1.55;;;;;;;25.75;64.72;99359.75;4941593;29;20034;-82
2023/06/14 18:30:41;;;;;;;4.20;2.20;;;;;;;25.62;65.68;99368.00;4937864;29;20019;-84
2023/06/14 18:33:07;;;;;;;6.03;3.58;;;;;;;25.46;65.49;99362.19;4939804;29;20469;-81
2023/06/14 18:35:32;;;;;;;4.85;2.13;;;;;;;25.30;66.57;99352.66;4935113;29;20059;-82
2023/06/14 18:37:58;;;;;;;3.17;1.88;;;;;;;25.33;66.54;99383.91;4944266;29;20500;-82
2023/06/14 18:40:23;;;;;;;2.95;1.60;;;;;;;25.18;66.70;99376.06;4940364;29;20363;-81
2023/06/14 18:42:49;;;;;;;2.88;2.00;;;;;;;25.13;67.38;99394.47;4938848;29;20039;-83
2023/06/14 18:45:15;;;;;;;3.70;1.58;;;;;;;24.82;68.55;99385.25;4941304;29;20055;-82
2023/06/14 18:47:40;;;;;;;4.35;1.58;;;;;;;24.76;68.58;99388.41;4944174;29;20066;-82
2023/06/14 18:50:06;;;;;;;2.80;1.95;;;;;;;24.89;68.45;99399.97;4940805;28;20119;-83
2023/06/14 18:52:32;;;;;;;3.42;1.85;;;;;;;24.67;68.97;99395.41;4950522;29;20031;-82
2023/06/14 18:54:57;;;;;;;4.18;2.47;;;;;;;24.83;69.32;99425.56;4948138;29;20070;-82
2023/06/14 18:57:23;;;;;;;3.10;1.80;;;;;;;24.62;69.97;99400.28;4944971;29;20054;-80
2023/06/14 18:59:48;;;;;;;12.05;1.60;;;;;;;24.67;70.37;99425.94;4947608;29;20032;-82
2023/06/14 19:02:14;;;;;;;3.70;2.08;;;;;;;24.39;70.73;99407.44;4935586;29;20597;-84
2023/06/14 19:04:39;;;;;;;5.30;3.13;;;;;;;23.96;70.42;99363.09;4943790;29;20401;-82
2023/06/14 19:07:05;;;;;;;2.72;1.42;;;;;;;24.32;70.65;99425.94;4948607;29;20506;-82
2023/06/14 19:09:31;;;;;;;3.42;1.88;;;;;;;24.03;70.59;99393.97;4943508;29;20129;-83
2023/06/14 19:11:57;;;;;;;2.60;2.00;;;;;;;24.29;70.92;99448.56;4944237;29;20035;-82
2023/06/14 19:14:22;;;;;;;2.88;2.13;;;;;;;24.27;69.92;99410.13;4944551;29;20046;-82
2023/06/14 19:16:48;;;;;;;4.93;2.38;;;;;;;24.44;69.19;99433.06;4941874;29;20112;-81
2023/06/14 19:19:14;;;;;;;3.53;1.83;;;;;;;24.25;69.94;99417.47;4937406;29;20031;-83
2023/06/14 19:21:39;;;;;;;2.03;1.25;;;;;;;24.35;69.07;99431.09;4939233;29;20027;-84
2023/06/14 19:24:05;;;;;;;3.65;2.10;;;;;;;24.16;68.57;99398.44;4941964;29;20753;-83
2023/06/14 19:26:31;;;;;;;6.80;1.92;;;;;;;24.13;68.96;99391.47;4946152;29;20043;-82
2023/06/14 19:28:57;;;;;;;4.05;2.35;;;;;;;24.22;69.28;99409.63;4939848;29;21101;-82
2023/06/14 19:31:24;;;;;;;3.58;2.15;;;;;;;24.28;69.32;99428.00;4945762;29;20106;-81
2023/06/14 19:33:49;;;;;;;4.22;2.20;;;;;;;24.44;68.81;99429.53;4944105;29;20031;-83
2023/06/14 19:36:18;;;;;;;4.25;2.15;;;;;;;24.46;69.22;99432.97;4930066;29;20067;-82
2023/06/14 19:38:44;;;;;;;2.78;1.88;;;;;;;24.34;68.90;99406.94;4940944;29;20030;-81
2023/06/14 19:41:10;;;;;;;2.53;1.98;;;;;;;24.48;68.97;99422.91;4945174;29;20035;-81
2023/06/14 19:43:36;;;;;;;2.80;2.22;;;;;;;24.32;69.81;99423.22;4941775;29;20415;-86
2023/06/14 19:46:01;;;;;;;3.25;1.88;;;;;;;24.31;70.66;99434.97;4939061;29;20038;-85
2023/06/14 19:48:33;;;;;;;2.10;1.80;;;;;;;24.22;70.76;99415.00;4943903;29;20106;-84
2023/06/14 19:50:59;;;;;;;2.45;2.25;;;;;;;24.34;70.71;99432.06;4940246;29;20031;-84
2023/06/14 19:53:25;;;;;;;5.00;2.80;;;;;;;23.73;70.97;99360.28;4939306;29;20578;-83
2023/06/14 19:55:51;;;;;;;3.42;2.00;;;;;;;24.06;70.82;99404.50;4938334;29;20113;-83
2023/06/14 19:58:17;;;;;;;2.40;1.50;;;;;;;24.09;71.31;99436.59;4936826;29;20035;-82
2023/06/14 20:00:43;;;;;;;3.30;1.95;;;;;;;24.12;71.10;99433.69;4936958;28;20102;-83
2023/06/14 20:03:10;;;;;;;2.63;2.00;;;;;;;23.93;71.99;99430.69;4939177;29;20028;-81
2023/06/14 20:05:36;;;;;;;2.33;1.92;;;;;;;24.03;71.81;99434.38;4935143;29;20122;-82
2023/06/14 20:08:02;;;;;;;3.17;1.73;;;;;;;24.05;71.78;99434.25;4940632;29;20031;-82
2023/06/14 20:10:28;;;;;;;3.88;2.05;;;;;;;23.75;71.42;99416.69;4939945;29;20118;-81
2023/06/14 20:12:54;;;;;;;2.97;1.73;;;;;;;23.75;71.56;99427.47;4945357;29;20509;-83
2023/06/14 20:15:19;;;;;;;2.50;1.98;;;;;;;23.74;71.60;99423.94;4937915;29;20027;-84
2023/06/14 20:17:45;;;;;;;4.05;2.45;;;;;;;23.77;72.16;99452.44;4943253;29;20062;-83
2023/06/14 20:20:10;;;;;;;2.13;1.42;;;;;;;23.73;71.95;99457.22;4940678;29;20062;-84
2023/06/14 20:22:39;;;;;;;3.63;2.55;;;;;;;23.56;71.93;99427.97;4919920;29;20417;-83
2023/06/14 20:25:06;;;;;;;3.05;1.85;;;;;;;23.51;71.13;99424.75;4939361;29;20035;-84
2023/06/14 20:27:35;;;;;;;3.10;1.58;;;;;;;23.46;71.49;99437.69;4942254;29;20031;-83
2023/06/14 20:30:01;;;;;;;2.92;2.05;;;;;;;23.42;71.16;99419.06;4942309;29;20046;-84
2023/06/14 20:32:27;;;;;;;5.03;2.47;;;;;;;23.35;71.51;99431.25;4949009;29;20031;-83
2023/06/14 20:34:56;;;;;;;3.08;1.75;;;;;;;23.51;71.27;99435.50;4935379;29;20154;-84
2023/06/14 20:37:22;;;;;;;3.05;1.95;;;;;;;23.56;71.44;99444.97;4940356;29;20042;-84
2023/06/14 20:39:49;;;;;;;4.20;3.08;;;;;;;23.63;71.75;99449.91;4935691;29;20407;-84
2023/06/14 20:42:15;;;;;;;3.95;2.30;;;;;;;23.68;71.65;99459.38;4938864;29;20032;-83
2023/06/14 20:44:41;;;;;;;3.67;2.30;;;;;;;23.50;71.43;99428.44;4938315;29;20106;-85
2023/06/14 20:47:12;;;;;;;5.00;2.83;;;;;;;23.35;71.78;99447.38;4941121;29;20130;-84